sensor_id;sensor_type;location;lat;lon;timestamp;pressure;altitude;pressure_sealevel;temperature;humidity
11001;BME280;5553;48.506;8.870;2023-03-26T00:01:31;96118.06;;;4.94;100.00
11001;BME280;5553;48.506;8.870;2023-03-26T00:04:01;96097.19;;;4.86;100.00
11001;BME280;5553;48.506;8.870;2023-03-26T00:06:31;96105.16;;;4.93;100.00
11001;BME280;5553;48.506;8.870;2023-03-26T02:15:00;95942.88;;;4.55;100.00
11001;BME280;5553;48.506;8.870;2023-03-26T02:27:22;95925.19;;;4.73;100.00
11001;BME280;5553;48.506;8.870;2023-03-26T06:07:42;95575.22;;;4.49;100.00
11001;BME280;5553;48.506;8.870;2023-03-26T06:10:10;95575.72;;;4.44;100.00
11001;BME280;5553;48.506;8.870;2023-03-26T06:12:39;95577.03;;;4.48;100.00
11001;BME280;5553;48.506;8.870;2023-03-26T06:15:09;95571.72;;;4.57;100.00
11001;BME280;5553;48.506;8.870;2023-03-26T06:17:37;95573.53;;;4.56;100.00
11001;BME280;5553;48.506;8.870;2023-03-26T06:20:07;95566.69;;;4.55;100.00
11001;BME280;5553;48.506;8.870;2023-03-26T06:22:35;95562.84;;;4.66;100.00
11001;BME280;5553;48.506;8.870;2023-03-26T06:25:07;95565.34;;;4.74;100.00
11001;BME280;5553;48.506;8.870;2023-03-26T06:27:35;95564.19;;;4.62;100.00
11001;BME280;5553;48.506;8.870;2023-03-26T06:30:04;95554.44;;;4.70;100.00
11001;BME280;5553;48.506;8.870;2023-03-26T06:32:33;95546.06;;;4.75;100.00
11001;BME280;5553;48.506;8.870;2023-03-26T06:35:01;95542.22;;;4.86;100.00
11001;BME280;5553;48.506;8.870;2023-03-26T06:37:29;95528.53;;;5.13;100.00
11001;BME280;5553;48.506;8.870;2023-03-26T06:39:57;95520.31;;;5.16;100.00
11001;BME280;5553;48.506;8.870;2023-03-26T06:42:28;95498.22;;;5.04;100.00
11001;BME280;5553;48.506;8.870;2023-03-26T06:44:56;95491.38;;;5.03;100.00
11001;BME280;5553;48.506;8.870;2023-03-26T06:47:25;95466.84;;;5.04;100.00
11001;BME280;5553;48.506;8.870;2023-03-26T06:49:53;95461.63;;;5.04;100.00
11001;BME280;5553;48.506;8.870;2023-03-26T06:52:21;95456.94;;;4.99;100.00
11001;BME280;5553;48.506;8.870;2023-03-26T06:54:50;95463.25;;;5.05;100.00
11001;BME280;5553;48.506;8.870;2023-03-26T06:57:18;95465.31;;;5.10;100.00
11001;BME280;5553;48.506;8.870;2023-03-26T06:59:49;95452.53;;;5.00;100.00
11001;BME280;5553;48.506;8.870;2023-03-26T07:02:17;95456.31;;;4.97;100.00
11001;BME280;5553;48.506;8.870;2023-03-26T07:04:46;95454.50;;;4.98;100.00
11001;BME280;5553;48.506;8.870;2023-03-26T07:07:14;95441.78;;;4.95;100.00
11001;BME280;5553;48.506;8.870;2023-03-26T07:09:44;95434.97;;;4.94;100.00
11001;BME280;5553;48.506;8.870;2023-03-26T07:12:13;95433.78;;;4.82;100.00
11001;BME280;5553;48.506;8.870;2023-03-26T07:14:41;95432.44;;;4.86;100.00
11001;BME280;5553;48.506;8.870;2023-03-26T07:17:12;95430.91;;;4.77;100.00
11001;BME280;5553;48.506;8.870;2023-03-26T07:19:40;95430.28;;;4.74;100.00
11001;BME280;5553;48.506;8.870;2023-03-26T07:22:20;95432.44;;;4.71;100.00
11001;BME280;5553;48.506;8.870;2023-03-26T07:24:49;95427.41;;;4.69;100.00
11001;BME280;5553;48.506;8.870;2023-03-26T07:27:30;95438.22;;;4.66;100.00
11001;BME280;5553;48.506;8.870;2023-03-26T07:30:05;95443.91;;;4.70;100.00
11001;BME280;5553;48.506;8.870;2023-03-26T07:32:44;95432.88;;;4.74;100.00
11001;BME280;5553;48.506;8.870;2023-03-26T07:35:19;95420.28;;;4.78;100.00
11001;BME280;5553;48.506;8.870;2023-03-26T07:38:01;95442.50;;;4.89;100.00
11001;BME280;5553;48.506;8.870;2023-03-26T07:40:50;95432.38;;;4.79;100.00
11001;BME280;5553;48.506;8.870;2023-03-26T07:43:30;95442.63;;;4.81;100.00
11001;BME280;5553;48.506;8.870;2023-03-26T07:46:01;95445.41;;;4.94;100.00
11001;BME280;5553;48.506;8.870;2023-03-26T07:48:39;95436.66;;;5.02;100.00
11001;BME280;5553;48.506;8.870;2023-03-26T07:51:09;95437.53;;;5.09;100.00
11001;BME280;5553;48.506;8.870;2023-03-26T07:53:38;95440.59;;;5.12;100.00
11001;BME280;5553;48.506;8.870;2023-03-26T07:56:12;95446.25;;;5.31;100.00
11001;BME280;5553;48.506;8.870;2023-03-26T07:59:01;95445.38;;;5.23;100.00
11001;BME280;5553;48.506;8.870;2023-03-26T08:01:45;95446.88;;;5.33;100.00
11001;BME280;5553;48.506;8.870;2023-03-26T08:04:32;95453.75;;;5.34;100.00
11001;BME280;5553;48.506;8.870;2023-03-26T08:07:07;95453.38;;;5.37;100.00
11001;BME280;5553;48.506;8.870;2023-03-26T08:09:42;95432.06;;;5.40;100.00
11001;BME280;5553;48.506;8.870;2023-03-26T08:12:25;95436.31;;;5.41;100.00
11001;BME280;5553;48.506;8.870;2023-03-26T08:15:00;95449.91;;;5.51;100.00
11001;BME280;5553;48.506;8.870;2023-03-26T08:17:34;95450.06;;;5.50;100.00
11001;BME280;5553;48.506;8.870;2023-03-26T08:20:22;95413.38;;;5.43;100.00
11001;BME280;5553;48.506;8.870;2023-03-26T08:23:00;95416.56;;;5.38;100.00
11001;BME280;5553;48.506;8.870;2023-03-26T08:25:32;95432.31;;;5.45;100.00
11001;BME280;5553;48.506;8.870;2023-03-26T08:28:21;95440.03;;;5.53;100.00
11001;BME280;5553;48.506;8.870;2023-03-26T08:30:54;95448.16;;;5.58;100.00
11001;BME280;5553;48.506;8.870;2023-03-26T08:33:25;95451.38;;;5.60;100.00
11001;BME280;5553;48.506;8.870;2023-03-26T08:35:57;95459.88;;;5.62;100.00
11001;BME280;5553;48.506;8.870;2023-03-26T08:38:25;95465.91;;;5.63;100.00
11001;BME280;5553;48.506;8.870;2023-03-26T08:47:19;95465.81;;;5.71;100.00
11001;BME280;5553;48.506;8.870;2023-03-26T08:50:17;95477.53;;;5.75;100.00
11001;BME280;5553;48.506;8.870;2023-03-26T08:53:11;95483.72;;;5.74;100.00
11001;BME280;5553;48.506;8.870;2023-03-26T08:55:50;95491.41;;;5.76;100.00
11001;BME280;5553;48.506;8.870;2023-03-26T08:58:47;95472.22;;;5.90;100.00
11001;BME280;5553;48.506;8.870;2023-03-26T09:01:41;95488.56;;;6.13;100.00
11001;BME280;5553;48.506;8.870;2023-03-26T09:07:58;95477.97;;;6.22;100.00
11001;BME280;5553;48.506;8.870;2023-03-26T09:10:49;95473.53;;;6.22;100.00
11001;BME280;5553;48.506;8.870;2023-03-26T09:17:00;95484.53;;;6.39;100.00
11001;BME280;5553;48.506;8.870;2023-03-26T09:19:54;95478.00;;;6.50;100.00
11001;BME280;5553;48.506;8.870;2023-03-26T09:22:51;95480.69;;;6.63;100.00
11001;BME280;5553;48.506;8.870;2023-03-26T09:25:49;95464.53;;;6.87;100.00
11001;BME280;5553;48.506;8.870;2023-03-26T09:28:41;95444.56;;;6.93;100.00
11001;BME280;5553;48.506;8.870;2023-03-26T09:31:30;95412.56;;;7.04;100.00
11001;BME280;5553;48.506;8.870;2023-03-26T09:34:20;95399.44;;;7.11;100.00
11001;BME280;5553;48.506;8.870;2023-03-26T09:36:53;95370.19;;;7.07;100.00
11001;BME280;5553;48.506;8.870;2023-03-26T09:39:33;95375.44;;;7.07;100.00
11001;BME280;5553;48.506;8.870;2023-03-26T09:42:15;95359.28;;;7.04;100.00
11001;BME280;5553;48.506;8.870;2023-03-26T09:48:11;95346.06;;;7.32;100.00
11001;BME280;5553;48.506;8.870;2023-03-26T09:50:59;95342.38;;;7.13;100.00
11001;BME280;5553;48.506;8.870;2023-03-26T09:53:50;95324.13;;;6.85;100.00
11001;BME280;5553;48.506;8.870;2023-03-26T09:56:30;95319.25;;;6.75;100.00
11001;BME280;5553;48.506;8.870;2023-03-26T09:59:20;95320.44;;;6.73;100.00
11001;BME280;5553;48.506;8.870;2023-03-26T10:01:57;95322.88;;;6.68;100.00
11001;BME280;5553;48.506;8.870;2023-03-26T10:04:56;95326.94;;;6.83;100.00
11001;BME280;5553;48.506;8.870;2023-03-26T10:07:45;95328.22;;;7.07;100.00
11001;BME280;5553;48.506;8.870;2023-03-26T10:10:25;95325.66;;;7.34;100.00
11001;BME280;5553;48.506;8.870;2023-03-26T10:13:00;95306.34;;;8.66;100.00
11001;BME280;5553;48.506;8.870;2023-03-26T10:15:48;95306.63;;;9.60;100.00
11001;BME280;5553;48.506;8.870;2023-03-26T10:18:29;95296.56;;;8.87;100.00
11001;BME280;5553;48.506;8.870;2023-03-26T10:21:04;95287.84;;;8.35;100.00
11001;BME280;5553;48.506;8.870;2023-03-26T10:23:59;95303.09;;;8.64;100.00
11001;BME280;5553;48.506;8.870;2023-03-26T10:26:45;95294.94;;;9.24;100.00
11001;BME280;5553;48.506;8.870;2023-03-26T10:29:47;95283.69;;;9.67;100.00
11001;BME280;5553;48.506;8.870;2023-03-26T10:32:28;95297.22;;;9.45;100.00
11001;BME280;5553;48.506;8.870;2023-03-26T10:35:07;95292.22;;;9.87;100.00
11001;BME280;5553;48.506;8.870;2023-03-26T10:37:49;95280.78;;;9.18;100.00
11001;BME280;5553;48.506;8.870;2023-03-26T10:40:26;95282.28;;;9.08;100.00
11001;BME280;5553;48.506;8.870;2023-03-26T10:46:18;95284.72;;;8.58;100.00
11001;BME280;5553;48.506;8.870;2023-03-26T10:49:17;95296.09;;;8.51;100.00
11001;BME280;5553;48.506;8.870;2023-03-26T10:51:54;95300.75;;;8.43;100.00
11001;BME280;5553;48.506;8.870;2023-03-26T10:54:33;95313.34;;;8.92;100.00
11001;BME280;5553;48.506;8.870;2023-03-26T10:57:20;95324.16;;;9.97;100.00
11001;BME280;5553;48.506;8.870;2023-03-26T10:59:51;95325.28;;;10.33;100.00
11001;BME280;5553;48.506;8.870;2023-03-26T11:02:27;95312.53;;;10.85;100.00
11001;BME280;5553;48.506;8.870;2023-03-26T11:05:15;95291.81;;;9.65;100.00
11001;BME280;5553;48.506;8.870;2023-03-26T11:07:51;95296.69;;;9.62;100.00
11001;BME280;5553;48.506;8.870;2023-03-26T11:10:30;95294.25;;;9.35;100.00
11001;BME280;5553;48.506;8.870;2023-03-26T11:13:12;95285.59;;;8.96;100.00
11001;BME280;5553;48.506;8.870;2023-03-26T11:15:48;95310.50;;;9.82;100.00
11001;BME280;5553;48.506;8.870;2023-03-26T11:18:28;95295.09;;;9.86;100.00
11001;BME280;5553;48.506;8.870;2023-03-26T11:21:07;95287.75;;;9.63;100.00
11001;BME280;5553;48.506;8.870;2023-03-26T11:23:39;95269.72;;;9.41;100.00
11001;BME280;5553;48.506;8.870;2023-03-26T11:26:14;95291.13;;;9.20;100.00
11001;BME280;5553;48.506;8.870;2023-03-26T11:29:06;95300.13;;;8.99;100.00
11001;BME280;5553;48.506;8.870;2023-03-26T11:31:48;95301.78;;;10.07;100.00
11001;BME280;5553;48.506;8.870;2023-03-26T11:34:26;95293.31;;;9.55;100.00
11001;BME280;5553;48.506;8.870;2023-03-26T11:37:00;95291.72;;;9.97;100.00
11001;BME280;5553;48.506;8.870;2023-03-26T11:39:40;95277.03;;;10.08;100.00
11001;BME280;5553;48.506;8.870;2023-03-26T11:42:13;95267.50;;;9.38;100.00
11001;BME280;5553;48.506;8.870;2023-03-26T11:44:45;95268.84;;;10.89;100.00
11001;BME280;5553;48.506;8.870;2023-03-26T11:47:20;95253.94;;;11.25;100.00
11001;BME280;5553;48.506;8.870;2023-03-26T11:49:52;95241.03;;;11.82;100.00
11001;BME280;5553;48.506;8.870;2023-03-26T11:52:24;95210.47;;;12.10;100.00
11001;BME280;5553;48.506;8.870;2023-03-26T11:54:54;95204.69;;;12.37;100.00
11001;BME280;5553;48.506;8.870;2023-03-26T11:57:26;95170.06;;;11.98;95.37
11001;BME280;5553;48.506;8.870;2023-03-26T12:00:00;95145.47;;;11.62;90.18
11001;BME280;5553;48.506;8.870;2023-03-26T12:02:37;95165.59;;;11.87;91.46
11001;BME280;5553;48.506;8.870;2023-03-26T12:05:15;95146.16;;;11.69;88.15
11001;BME280;5553;48.506;8.870;2023-03-26T12:10:29;95123.53;;;11.50;84.11
11001;BME280;5553;48.506;8.870;2023-03-26T12:13:12;95144.44;;;11.98;86.30
11001;BME280;5553;48.506;8.870;2023-03-26T12:15:42;95134.19;;;12.02;85.67
11001;BME280;5553;48.506;8.870;2023-03-26T12:18:21;95089.50;;;11.89;79.43
11001;BME280;5553;48.506;8.870;2023-03-26T12:21:02;95098.03;;;11.67;80.68
11001;BME280;5553;48.506;8.870;2023-03-26T12:23:37;95107.88;;;12.36;82.05
11001;BME280;5553;48.506;8.870;2023-03-26T12:26:14;95041.47;;;11.39;75.53
11001;BME280;5553;48.506;8.870;2023-03-26T12:28:44;95066.19;;;11.85;75.63
11001;BME280;5553;48.506;8.870;2023-03-26T12:31:14;95089.97;;;11.97;76.09
11001;BME280;5553;48.506;8.870;2023-03-26T12:33:45;95086.63;;;12.30;75.46
11001;BME280;5553;48.506;8.870;2023-03-26T12:36:23;95068.25;;;12.24;75.63
11001;BME280;5553;48.506;8.870;2023-03-26T12:38:54;95095.25;;;12.38;78.70
11001;BME280;5553;48.506;8.870;2023-03-26T12:41:36;95086.66;;;12.76;77.87
11001;BME280;5553;48.506;8.870;2023-03-26T12:44:21;95066.91;;;12.84;76.07
11001;BME280;5553;48.506;8.870;2023-03-26T12:47:06;95032.81;;;12.70;72.99
11001;BME280;5553;48.506;8.870;2023-03-26T12:49:35;95061.47;;;13.07;75.84
11001;BME280;5553;48.506;8.870;2023-03-26T12:52:15;94987.09;;;12.24;70.00
11001;BME280;5553;48.506;8.870;2023-03-26T12:54:53;95006.69;;;12.57;70.22
11001;BME280;5553;48.506;8.870;2023-03-26T12:57:33;94989.88;;;12.01;68.22
11001;BME280;5553;48.506;8.870;2023-03-26T13:00:18;94990.66;;;12.47;69.34
11001;BME280;5553;48.506;8.870;2023-03-26T13:03:01;94986.56;;;12.73;68.97
11001;BME280;5553;48.506;8.870;2023-03-26T13:05:41;94975.03;;;11.19;70.47
11001;BME280;5553;48.506;8.870;2023-03-26T13:08:36;94983.16;;;10.35;71.89
11001;BME280;5553;48.506;8.870;2023-03-26T13:11:10;95034.88;;;10.18;76.56
11001;BME280;5553;48.506;8.870;2023-03-26T13:13:54;95059.91;;;9.79;79.51
11001;BME280;5553;48.506;8.870;2023-03-26T13:16:31;95070.53;;;9.35;82.42
11001;BME280;5553;48.506;8.870;2023-03-26T13:19:06;95125.06;;;9.03;91.25
11001;BME280;5553;48.506;8.870;2023-03-26T13:21:44;95152.69;;;10.36;97.73
11001;BME280;5553;48.506;8.870;2023-03-26T13:24:25;95149.19;;;10.96;96.88
11001;BME280;5553;48.506;8.870;2023-03-26T13:27:04;95109.63;;;10.96;92.34
11001;BME280;5553;48.506;8.870;2023-03-26T13:29:47;95075.06;;;10.13;91.16
11001;BME280;5553;48.506;8.870;2023-03-26T13:32:25;95089.00;;;10.51;93.35
11001;BME280;5553;48.506;8.870;2023-03-26T13:35:06;95096.06;;;10.38;95.39
11001;BME280;5553;48.506;8.870;2023-03-26T13:37:42;95085.38;;;10.63;93.44
11001;BME280;5553;48.506;8.870;2023-03-26T13:40:23;95046.06;;;10.74;87.80
11001;BME280;5553;48.506;8.870;2023-03-26T13:45:58;95048.47;;;11.98;85.29
11001;BME280;5553;48.506;8.870;2023-03-26T13:48:33;95043.31;;;11.27;86.27
11001;BME280;5553;48.506;8.870;2023-03-26T13:51:08;95038.81;;;10.57;85.85
11001;BME280;5553;48.506;8.870;2023-03-26T13:53:42;95038.38;;;10.30;86.84
11001;BME280;5553;48.506;8.870;2023-03-26T13:56:16;95049.75;;;10.12;88.52
11001;BME280;5553;48.506;8.870;2023-03-26T13:58:50;95055.72;;;10.38;88.48
11001;BME280;5553;48.506;8.870;2023-03-26T14:01:26;95052.13;;;10.86;87.78
11001;BME280;5553;48.506;8.870;2023-03-26T14:04:04;95066.63;;;11.82;87.95
11001;BME280;5553;48.506;8.870;2023-03-26T14:06:40;95003.75;;;10.80;81.88
11001;BME280;5553;48.506;8.870;2023-03-26T14:09:15;95003.16;;;10.25;81.01
11001;BME280;5553;48.506;8.870;2023-03-26T14:11:52;95026.75;;;9.89;83.08
11001;BME280;5553;48.506;8.870;2023-03-26T14:14:30;95047.47;;;9.86;84.65
11001;BME280;5553;48.506;8.870;2023-03-26T14:17:08;95034.28;;;10.34;81.59
11001;BME280;5553;48.506;8.870;2023-03-26T14:20:06;95043.53;;;10.67;80.64
11001;BME280;5553;48.506;8.870;2023-03-26T14:22:43;95027.91;;;10.24;80.89
11001;BME280;5553;48.506;8.870;2023-03-26T14:25:29;95058.81;;;9.86;83.67
11001;BME280;5553;48.506;8.870;2023-03-26T14:28:09;94998.22;;;9.38;77.91
11001;BME280;5553;48.506;8.870;2023-03-26T14:30:56;95028.63;;;9.34;80.48
11001;BME280;5553;48.506;8.870;2023-03-26T14:36:47;95039.44;;;9.25;82.05
11001;BME280;5553;48.506;8.870;2023-03-26T14:39:30;95037.75;;;9.13;82.32
11001;BME280;5553;48.506;8.870;2023-03-26T14:42:07;95066.09;;;8.92;85.46
11001;BME280;5553;48.506;8.870;2023-03-26T14:44:55;95069.63;;;8.80;86.85
11001;BME280;5553;48.506;8.870;2023-03-26T14:47:28;95097.50;;;8.56;88.83
11001;BME280;5553;48.506;8.870;2023-03-26T14:50:39;95110.41;;;8.19;90.77
11001;BME280;5553;48.506;8.870;2023-03-26T14:53:20;95128.88;;;8.05;92.87
11001;BME280;5553;48.506;8.870;2023-03-26T14:59:10;95160.25;;;7.94;97.31
11001;BME280;5553;48.506;8.870;2023-03-26T15:02:03;95152.78;;;7.84;99.05
11001;BME280;5553;48.506;8.870;2023-03-26T15:04:53;95161.31;;;7.73;99.58
11001;BME280;5553;48.506;8.870;2023-03-26T15:07:52;95164.78;;;7.40;100.00
11001;BME280;5553;48.506;8.870;2023-03-26T15:11:03;95200.31;;;7.03;100.00
11001;BME280;5553;48.506;8.870;2023-03-26T15:13:51;95201.59;;;6.39;100.00
11001;BME280;5553;48.506;8.870;2023-03-26T15:16:42;95217.16;;;5.99;100.00
11001;BME280;5553;48.506;8.870;2023-03-26T15:19:49;95221.44;;;5.79;100.00
11001;BME280;5553;48.506;8.870;2023-03-26T15:22:48;95253.34;;;5.61;100.00
11001;BME280;5553;48.506;8.870;2023-03-26T15:25:54;95262.72;;;5.49;100.00
11001;BME280;5553;48.506;8.870;2023-03-26T15:29:05;95273.75;;;5.44;100.00
11001;BME280;5553;48.506;8.870;2023-03-26T15:32:01;95287.94;;;5.35;100.00
11001;BME280;5553;48.506;8.870;2023-03-26T15:40:55;95276.81;;;5.26;100.00
11001;BME280;5553;48.506;8.870;2023-03-26T15:43:54;95269.69;;;5.41;100.00
11001;BME280;5553;48.506;8.870;2023-03-26T15:46:53;95253.56;;;5.38;100.00
11001;BME280;5553;48.506;8.870;2023-03-26T15:49:29;95258.84;;;5.44;100.00
11001;BME280;5553;48.506;8.870;2023-03-26T15:52:13;95249.03;;;5.25;100.00
11001;BME280;5553;48.506;8.870;2023-03-26T15:54:50;95257.19;;;5.15;100.00
11001;BME280;5553;48.506;8.870;2023-03-26T15:57:26;95259.81;;;5.15;100.00
11001;BME280;5553;48.506;8.870;2023-03-26T16:00:04;95260.63;;;5.16;100.00
11001;BME280;5553;48.506;8.870;2023-03-26T16:02:48;95259.66;;;5.17;100.00
11001;BME280;5553;48.506;8.870;2023-03-26T16:05:52;95265.16;;;5.29;100.00
11001;BME280;5553;48.506;8.870;2023-03-26T16:08:30;95262.84;;;5.19;100.00
11001;BME280;5553;48.506;8.870;2023-03-26T16:11:03;95276.38;;;5.22;100.00
11001;BME280;5553;48.506;8.870;2023-03-26T16:13:37;95289.00;;;5.19;100.00
11001;BME280;5553;48.506;8.870;2023-03-26T16:16:20;95286.84;;;5.01;100.00
11001;BME280;5553;48.506;8.870;2023-03-26T16:19:31;95294.25;;;4.97;100.00
11001;BME280;5553;48.506;8.870;2023-03-26T16:22:02;95294.38;;;5.11;100.00
11001;BME280;5553;48.506;8.870;2023-03-26T16:24:34;95306.72;;;5.17;100.00
11001;BME280;5553;48.506;8.870;2023-03-26T16:27:25;95308.88;;;5.13;100.00
11001;BME280;5553;48.506;8.870;2023-03-26T16:30:24;95312.38;;;5.20;100.00
11001;BME280;5553;48.506;8.870;2023-03-26T16:32:56;95313.56;;;5.18;100.00
11001;BME280;5553;48.506;8.870;2023-03-26T16:36:02;95323.00;;;5.19;100.00
11001;BME280;5553;48.506;8.870;2023-03-26T16:38:47;95311.75;;;5.18;100.00
11001;BME280;5553;48.506;8.870;2023-03-26T16:41:18;95312.84;;;5.09;100.00
11001;BME280;5553;48.506;8.870;2023-03-26T16:44:05;95312.59;;;5.04;100.00
11001;BME280;5553;48.506;8.870;2023-03-26T16:46:43;95315.16;;;4.97;100.00
11001;BME280;5553;48.506;8.870;2023-03-26T16:49:24;95315.72;;;4.93;100.00
11001;BME280;5553;48.506;8.870;2023-03-26T16:52:03;95321.91;;;4.92;100.00
11001;BME280;5553;48.506;8.870;2023-03-26T16:54:42;95323.94;;;4.90;100.00
11001;BME280;5553;48.506;8.870;2023-03-26T16:57:19;95326.19;;;4.93;100.00
11001;BME280;5553;48.506;8.870;2023-03-26T17:00:25;95332.75;;;4.89;100.00
11001;BME280;5553;48.506;8.870;2023-03-26T17:03:05;95335.00;;;4.92;100.00
11001;BME280;5553;48.506;8.870;2023-03-26T17:05:49;95331.13;;;4.88;100.00
11001;BME280;5553;48.506;8.870;2023-03-26T17:08:36;95330.13;;;4.89;100.00
11001;BME280;5553;48.506;8.870;2023-03-26T17:11:18;95327.97;;;4.92;100.00
11001;BME280;5553;48.506;8.870;2023-03-26T17:13:56;95334.19;;;4.91;100.00
11001;BME280;5553;48.506;8.870;2023-03-26T17:16:33;95330.31;;;4.87;100.00
11001;BME280;5553;48.506;8.870;2023-03-26T17:19:08;95338.72;;;4.83;100.00
11001;BME280;5553;48.506;8.870;2023-03-26T17:21:48;95337.72;;;4.84;100.00
11001;BME280;5553;48.506;8.870;2023-03-26T17:24:29;95334.66;;;4.80;100.00
11001;BME280;5553;48.506;8.870;2023-03-26T17:27:09;95343.31;;;4.81;100.00
11001;BME280;5553;48.506;8.870;2023-03-26T17:29:59;95342.72;;;4.79;100.00
11001;BME280;5553;48.506;8.870;2023-03-26T17:32:53;95344.97;;;4.67;100.00
11001;BME280;5553;48.506;8.870;2023-03-26T17:35:37;95353.34;;;4.62;100.00
11001;BME280;5553;48.506;8.870;2023-03-26T17:41:07;95353.19;;;4.49;100.00
11001;BME280;5553;48.506;8.870;2023-03-26T17:43:41;95359.50;;;4.40;100.00
11001;BME280;5553;48.506;8.870;2023-03-26T17:46:27;95347.44;;;4.39;100.00
11001;BME280;5553;48.506;8.870;2023-03-26T17:49:02;95355.72;;;4.27;100.00
11001;BME280;5553;48.506;8.870;2023-03-26T17:51:39;95359.75;;;4.30;100.00
11001;BME280;5553;48.506;8.870;2023-03-26T17:54:18;95368.84;;;4.19;100.00
11001;BME280;5553;48.506;8.870;2023-03-26T17:56:54;95381.00;;;4.12;100.00
11001;BME280;5553;48.506;8.870;2023-03-26T17:59:25;95380.75;;;4.07;100.00
11001;BME280;5553;48.506;8.870;2023-03-26T18:01:56;95388.91;;;4.04;100.00
11001;BME280;5553;48.506;8.870;2023-03-26T18:04:30;95388.28;;;4.02;100.00
11001;BME280;5553;48.506;8.870;2023-03-26T18:10:19;95379.09;;;4.06;100.00
11001;BME280;5553;48.506;8.870;2023-03-26T18:13:12;95371.16;;;3.99;100.00
11001;BME280;5553;48.506;8.870;2023-03-26T18:15:51;95369.84;;;4.18;100.00
11001;BME280;5553;48.506;8.870;2023-03-26T18:18:29;95370.19;;;4.15;100.00
11001;BME280;5553;48.506;8.870;2023-03-26T18:20:59;95371.56;;;4.11;100.00
11001;BME280;5553;48.506;8.870;2023-03-26T18:23:35;95368.25;;;4.17;100.00
11001;BME280;5553;48.506;8.870;2023-03-26T18:26:11;95372.47;;;4.18;100.00
11001;BME280;5553;48.506;8.870;2023-03-26T18:28:45;95365.25;;;4.20;100.00
11001;BME280;5553;48.506;8.870;2023-03-26T18:31:18;95374.44;;;4.16;100.00
11001;BME280;5553;48.506;8.870;2023-03-26T18:33:48;95365.72;;;4.24;100.00
11001;BME280;5553;48.506;8.870;2023-03-26T18:36:25;95365.25;;;4.20;100.00
11001;BME280;5553;48.506;8.870;2023-03-26T18:38:55;95352.56;;;4.17;100.00
11001;BME280;5553;48.506;8.870;2023-03-26T18:41:28;95356.00;;;4.18;100.00
11001;BME280;5553;48.506;8.870;2023-03-26T18:44:03;95362.72;;;4.12;100.00
11001;BME280;5553;48.506;8.870;2023-03-26T18:46:32;95367.25;;;4.18;100.00
11001;BME280;5553;48.506;8.870;2023-03-26T18:49:01;95361.91;;;4.26;100.00
11001;BME280;5553;48.506;8.870;2023-03-26T18:51:30;95362.28;;;4.23;100.00
11001;BME280;5553;48.506;8.870;2023-03-26T18:54:02;95364.97;;;4.15;100.00
11001;BME280;5553;48.506;8.870;2023-03-26T18:56:35;95372.28;;;4.20;100.00
11001;BME280;5553;48.506;8.870;2023-03-26T18:59:19;95367.31;;;4.10;100.00
11001;BME280;5553;48.506;8.870;2023-03-26T19:01:53;95361.13;;;4.11;100.00
11001;BME280;5553;48.506;8.870;2023-03-26T19:04:22;95353.53;;;4.16;100.00
11001;BME280;5553;48.506;8.870;2023-03-26T19:06:52;95355.53;;;4.14;100.00
11001;BME280;5553;48.506;8.870;2023-03-26T19:09:22;95363.53;;;4.13;100.00
11001;BME280;5553;48.506;8.870;2023-03-26T19:11:55;95370.56;;;4.12;100.00
11001;BME280;5553;48.506;8.870;2023-03-26T19:14:26;95381.44;;;4.16;100.00
11001;BME280;5553;48.506;8.870;2023-03-26T19:17:02;95377.50;;;4.20;100.00
11001;BME280;5553;48.506;8.870;2023-03-26T19:19:33;95379.75;;;4.23;100.00
11001;BME280;5553;48.506;8.870;2023-03-26T19:22:03;95377.31;;;4.21;100.00
11001;BME280;5553;48.506;8.870;2023-03-26T19:24:33;95383.00;;;4.25;100.00
11001;BME280;5553;48.506;8.870;2023-03-26T19:27:01;95382.00;;;4.26;100.00
11001;BME280;5553;48.506;8.870;2023-03-26T19:29:34;95383.81;;;4.25;100.00
11001;BME280;5553;48.506;8.870;2023-03-26T19:32:04;95379.47;;;4.33;100.00
11001;BME280;5553;48.506;8.870;2023-03-26T19:34:36;95369.41;;;4.30;100.00
11001;BME280;5553;48.506;8.870;2023-03-26T19:37:16;95369.13;;;4.24;100.00
11001;BME280;5553;48.506;8.870;2023-03-26T19:39:47;95366.88;;;4.21;100.00
11001;BME280;5553;48.506;8.870;2023-03-26T19:42:19;95368.69;;;4.21;100.00
11001;BME280;5553;48.506;8.870;2023-03-26T19:44:52;95372.16;;;4.13;100.00
11001;BME280;5553;48.506;8.870;2023-03-26T19:47:22;95368.59;;;4.14;100.00
11001;BME280;5553;48.506;8.870;2023-03-26T19:49:54;95369.84;;;4.03;100.00
11001;BME280;5553;48.506;8.870;2023-03-26T19:52:24;95374.13;;;3.96;100.00
11001;BME280;5553;48.506;8.870;2023-03-26T19:55:00;95391.69;;;3.88;100.00
11001;BME280;5553;48.506;8.870;2023-03-26T19:57:31;95387.50;;;3.78;100.00
11001;BME280;5553;48.506;8.870;2023-03-26T20:00:04;95387.69;;;3.77;100.00
11001;BME280;5553;48.506;8.870;2023-03-26T20:02:38;95384.78;;;3.72;100.00
11001;BME280;5553;48.506;8.870;2023-03-26T20:05:13;95381.84;;;3.75;100.00
11001;BME280;5553;48.506;8.870;2023-03-26T20:07:47;95387.63;;;3.62;100.00
11001;BME280;5553;48.506;8.870;2023-03-26T20:10:15;95380.81;;;3.61;100.00
11001;BME280;5553;48.506;8.870;2023-03-26T20:12:44;95375.13;;;3.58;100.00
11001;BME280;5553;48.506;8.870;2023-03-26T20:15:19;95369.91;;;3.58;100.00
11001;BME280;5553;48.506;8.870;2023-03-26T20:17:48;95372.72;;;3.56;100.00
11001;BME280;5553;48.506;8.870;2023-03-26T20:20:19;95370.84;;;3.42;100.00
11001;BME280;5553;48.506;8.870;2023-03-26T20:22:49;95378.66;;;3.42;100.00
11001;BME280;5553;48.506;8.870;2023-03-26T20:25:20;95378.72;;;3.33;100.00
11001;BME280;5553;48.506;8.870;2023-03-26T20:27:49;95372.59;;;3.26;100.00
11001;BME280;5553;48.506;8.870;2023-03-26T20:30:22;95374.66;;;3.31;100.00
11001;BME280;5553;48.506;8.870;2023-03-26T20:32:50;95379.25;;;3.29;100.00
11001;BME280;5553;48.506;8.870;2023-03-26T20:35:22;95374.53;;;3.24;100.00
11001;BME280;5553;48.506;8.870;2023-03-26T20:37:51;95379.19;;;3.14;100.00
11001;BME280;5553;48.506;8.870;2023-03-26T20:40:19;95379.06;;;3.07;100.00
11001;BME280;5553;48.506;8.870;2023-03-26T20:42:51;95384.09;;;3.09;100.00
11001;BME280;5553;48.506;8.870;2023-03-26T20:45:22;95381.72;;;2.99;100.00
11001;BME280;5553;48.506;8.870;2023-03-26T20:47:50;95378.25;;;3.07;100.00
11001;BME280;5553;48.506;8.870;2023-03-26T20:50:21;95380.50;;;3.10;100.00